Time,TemperatureF,DewpointF,PressureIn,WindDirection,WindDirectionDegrees,WindSpeedMPH,WindSpeedGustMPH,Humidity,HourlyPrecipIn,Conditions,Clouds,dailyrainin,SolarRadiationWatts/m^2,SoftwareType,DateUTC
2013-02-15 00:02:00,40.0,40.0,-100.00,WSW,243,1.0,2.0,100,0.00,,,0.00,0.000000,,2013-02-15 05:02:00,
2013-02-15 00:32:00,39.0,39.0,-100.00,North,351,1.0,2.0,100,0.00,,,0.00,0.000000,,2013-02-15 05:32:00,
2013-02-15 00:42:00,39.0,39.0,-100.00,North,351,1.0,2.0,100,0.00,,,0.00,0.000000,,2013-02-15 05:42:00,
2013-02-15 00:52:00,39.0,39.0,-100.00,North,351,1.0,2.0,100,0.00,,,0.00,0.000000,,2013-02-15 05:52:00,
2013-02-15 01:02:00,39.0,39.0,-100.00,North,351,1.0,2.0,100,0.00,,,0.00,0.000000,,2013-02-15 06:02:00,
2013-02-15 01:32:00,37.0,37.0,-100.00,North,5,1.0,2.0,100,0.00,,,0.00,0.000000,,2013-02-15 06:32:00,
2013-02-15 01:42:00,37.0,37.0,-100.00,North,5,1.0,2.0,100,0.00,,,0.00,0.000000,,2013-02-15 06:42:00,
2013-02-15 01:52:00,37.0,37.0,-100.00,North,5,1.0,2.0,100,0.00,,,0.00,0.000000,,2013-02-15 06:52:00,
2013-02-15 02:01:00,37.0,37.0,-100.00,North,5,1.0,2.0,100,0.00,,,0.00,0.000000,,2013-02-15 07:01:00,
2013-02-15 02:21:00,35.0,35.0,-100.00,NNE,12,1.0,1.0,99,0.00,,,0.00,0.000000,,2013-02-15 07:21:00,
2013-02-15 02:32:00,35.0,35.0,-100.00,NNE,12,1.0,1.0,99,0.00,,,0.00,0.000000,,2013-02-15 07:32:00,
2013-02-15 02:42:00,35.0,35.0,-100.00,NNE,12,1.0,1.0,99,0.00,,,0.00,0.000000,,2013-02-15 07:42:00,
2013-02-15 02:52:00,35.0,35.0,-100.00,NNE,12,1.0,1.0,99,0.00,,,0.00,0.000000,,2013-02-15 07:52:00,
2013-02-15 03:01:00,35.0,35.0,-100.00,NNE,12,1.0,1.0,99,0.00,,,0.00,0.000000,,2013-02-15 08:01:00,
2013-02-15 03:21:00,34.0,34.0,-100.00,NNW,345,1.0,2.0,99,0.00,,,0.00,0.000000,,2013-02-15 08:21:00,
2013-02-15 03:32:00,34.0,34.0,-100.00,NNW,345,1.0,2.0,99,0.00,,,0.00,0.000000,,2013-02-15 08:32:00,
2013-02-15 03:42:00,34.0,34.0,-100.00,NNW,345,1.0,2.0,99,0.00,,,0.00,0.000000,,2013-02-15 08:42:00,
2013-02-15 03:53:00,34.0,34.0,-100.00,NNW,345,1.0,2.0,99,0.00,,,0.00,0.000000,,2013-02-15 08:53:00,
2013-02-15 04:02:00,34.0,34.0,-100.00,NNW,345,1.0,2.0,99,0.00,,,0.00,0.000000,,2013-02-15 09:02:00,
2013-02-15 04:22:00,33.0,33.0,-100.00,NNW,331,1.0,2.0,100,0.00,,,0.00,0.000000,,2013-02-15 09:22:00,
2013-02-15 04:32:00,33.0,33.0,-100.00,NNW,331,1.0,2.0,100,0.00,,,0.00,0.000000,,2013-02-15 09:32:00,
2013-02-15 04:42:00,33.0,33.0,-100.00,NNW,331,1.0,2.0,100,0.00,,,0.00,0.000000,,2013-02-15 09:42:00,
2013-02-15 04:52:00,33.0,33.0,-100.00,NNW,331,1.0,2.0,100,0.00,,,0.00,0.000000,,2013-02-15 09:52:00,
2013-02-15 05:01:00,33.0,33.0,-100.00,NNW,331,1.0,2.0,100,0.00,,,0.00,0.000000,,2013-02-15 10:01:00,
2013-02-15 05:32:00,32.0,32.0,-100.00,WSW,247,1.0,2.0,100,0.00,,,0.00,0.000000,,2013-02-15 10:32:00,
2013-02-15 05:42:00,32.0,32.0,-100.00,WSW,247,1.0,2.0,100,0.00,,,0.00,0.000000,,2013-02-15 10:42:00,
2013-02-15 05:52:00,32.0,32.0,-100.00,WSW,247,1.0,2.0,100,0.00,,,0.00,0.000000,,2013-02-15 10:52:00,
2013-02-15 06:01:00,32.0,32.0,-100.00,WSW,247,1.0,2.0,100,0.00,,,0.00,0.000000,,2013-02-15 11:01:00,
2013-02-15 06:32:00,32.0,32.0,-100.00,NNW,333,0.0,1.0,100,0.00,,,0.00,0.000000,,2013-02-15 11:32:00,
2013-02-15 06:42:00,32.0,32.0,-100.00,NNW,333,0.0,1.0,100,0.00,,,0.00,0.000000,,2013-02-15 11:42:00,
2013-02-15 06:52:00,32.0,32.0,-100.00,NNW,333,0.0,1.0,100,0.00,,,0.00,0.000000,,2013-02-15 11:52:00,
2013-02-15 07:02:00,32.0,32.0,-100.00,NNW,333,0.0,1.0,100,0.00,,,0.00,0.000000,,2013-02-15 12:02:00,
2013-02-15 07:22:00,31.0,31.0,-100.00,NNW,334,0.0,2.0,100,0.00,,,0.00,0.000000,,2013-02-15 12:22:00,
2013-02-15 07:32:00,31.0,31.0,-100.00,NNW,334,0.0,2.0,100,0.00,,,0.00,0.000000,,2013-02-15 12:32:00,
2013-02-15 07:42:00,31.0,31.0,-100.00,NNW,334,0.0,2.0,100,0.00,,,0.00,0.000000,,2013-02-15 12:42:00,
2013-02-15 07:52:00,31.0,31.0,-100.00,NNW,334,0.0,2.0,100,0.00,,,0.00,0.000000,,2013-02-15 12:52:00,
2013-02-15 08:02:00,31.0,31.0,-100.00,NNW,334,0.0,2.0,100,0.00,,,0.00,0.000000,,2013-02-15 13:02:00,
2013-02-15 08:22:00,33.0,33.0,-100.00,WNW,291,1.0,2.0,100,0.00,,,0.00,18.000000,,2013-02-15 13:22:00,
2013-02-15 08:32:00,33.0,33.0,-100.00,WNW,291,1.0,2.0,100,0.00,,,0.00,18.000000,,2013-02-15 13:32:00,
2013-02-15 08:42:00,33.0,33.0,-100.00,WNW,291,1.0,2.0,100,0.00,,,0.00,18.000000,,2013-02-15 13:42:00,
2013-02-15 08:52:00,33.0,33.0,-100.00,WNW,291,1.0,2.0,100,0.00,,,0.00,18.000000,,2013-02-15 13:52:00,
2013-02-15 09:01:00,33.0,33.0,-100.00,WNW,291,1.0,2.0,100,0.00,,,0.00,18.000000,,2013-02-15 14:01:00,
2013-02-15 09:32:00,43.0,43.0,-100.00,NE,34,2.0,4.0,100,0.00,,,0.00,128.000000,,2013-02-15 14:32:00,
2013-02-15 09:42:00,43.0,43.0,-100.00,NE,34,2.0,4.0,100,0.00,,,0.00,128.000000,,2013-02-15 14:42:00,
2013-02-15 09:52:00,43.0,43.0,-100.00,NE,34,2.0,4.0,100,0.00,,,0.00,128.000000,,2013-02-15 14:52:00,
2013-02-15 10:02:00,43.0,43.0,-100.00,NE,34,2.0,4.0,100,0.00,,,0.00,128.000000,,2013-02-15 15:02:00,
2013-02-15 10:32:00,53.0,42.0,-100.00,NNE,18,4.0,7.0,66,0.00,,,0.00,328.000000,,2013-02-15 15:32:00,
2013-02-15 10:42:00,53.0,42.0,-100.00,NNE,18,4.0,7.0,66,0.00,,,0.00,328.000000,,2013-02-15 15:42:00,
2013-02-15 10:52:00,53.0,42.0,-100.00,NNE,18,4.0,7.0,66,0.00,,,0.00,328.000000,,2013-02-15 15:52:00,
2013-02-15 11:02:00,53.0,42.0,-100.00,NNE,18,4.0,7.0,66,0.00,,,0.00,328.000000,,2013-02-15 16:02:00,
2013-02-15 11:32:00,58.0,39.0,-100.00,East,90,3.0,7.0,49,0.00,,,0.00,648.000000,,2013-02-15 16:32:00,
2013-02-15 11:43:00,58.0,39.0,-100.00,East,90,3.0,7.0,49,0.00,,,0.00,648.000000,,2013-02-15 16:43:00,
2013-02-15 11:52:00,58.0,39.0,-100.00,East,90,3.0,7.0,49,0.00,,,0.00,648.000000,,2013-02-15 16:52:00,
2013-02-15 12:01:00,58.0,39.0,-100.00,East,90,3.0,7.0,49,0.00,,,0.00,648.000000,,2013-02-15 17:01:00,
2013-02-15 12:32:00,60.0,38.0,-100.00,ENE,72,4.0,7.0,44,0.00,,,0.00,762.000000,,2013-02-15 17:32:00,
2013-02-15 12:42:00,60.0,38.0,-100.00,ENE,72,4.0,7.0,44,0.00,,,0.00,762.000000,,2013-02-15 17:42:00,
2013-02-15 12:52:00,60.0,38.0,-100.00,ENE,72,4.0,7.0,44,0.00,,,0.00,762.000000,,2013-02-15 17:52:00,
2013-02-15 13:02:00,60.0,38.0,-100.00,ENE,72,4.0,7.0,44,0.00,,,0.00,762.000000,,2013-02-15 18:02:00,
2013-02-15 13:32:00,63.0,36.0,-100.00,East,81,3.0,7.0,37,0.00,,,0.00,808.000000,,2013-02-15 18:32:00,
2013-02-15 13:42:00,63.0,36.0,-100.00,East,81,3.0,7.0,37,0.00,,,0.00,808.000000,,2013-02-15 18:42:00,
2013-02-15 13:53:00,63.0,36.0,-100.00,East,81,3.0,7.0,37,0.00,,,0.00,808.000000,,2013-02-15 18:53:00,
2013-02-15 14:02:00,63.0,36.0,-100.00,East,81,3.0,7.0,37,0.00,,,0.00,808.000000,,2013-02-15 19:02:00,
2013-02-15 14:32:00,65.0,35.0,-100.00,SSW,210,3.0,7.0,33,0.00,,,0.00,778.000000,,2013-02-15 19:32:00,
2013-02-15 14:42:00,65.0,35.0,-100.00,SSW,210,3.0,7.0,33,0.00,,,0.00,778.000000,,2013-02-15 19:42:00,
2013-02-15 14:52:00,65.0,35.0,-100.00,SSW,210,3.0,7.0,33,0.00,,,0.00,778.000000,,2013-02-15 19:52:00,
2013-02-15 15:01:00,65.0,35.0,-100.00,SSW,210,3.0,7.0,33,0.00,,,0.00,778.000000,,2013-02-15 20:01:00,
2013-02-15 15:22:00,66.0,35.0,-100.00,NW,312,3.0,8.0,32,0.00,,,0.00,674.000000,,2013-02-15 20:22:00,
2013-02-15 15:32:00,66.0,35.0,-100.00,NW,312,3.0,8.0,32,0.00,,,0.00,674.000000,,2013-02-15 20:32:00,
2013-02-15 15:42:00,66.0,35.0,-100.00,NW,312,3.0,8.0,32,0.00,,,0.00,674.000000,,2013-02-15 20:42:00,
2013-02-15 15:52:00,66.0,35.0,-100.00,NW,312,3.0,8.0,32,0.00,,,0.00,674.000000,,2013-02-15 20:52:00,
2013-02-15 16:02:00,66.0,35.0,-100.00,NW,312,3.0,8.0,32,0.00,,,0.00,674.000000,,2013-02-15 21:02:00,
2013-02-15 16:32:00,64.0,37.0,-100.00,North,6,3.0,7.0,37,0.00,,,0.00,500.000000,,2013-02-15 21:32:00,
2013-02-15 16:42:00,64.0,37.0,-100.00,North,6,3.0,7.0,37,0.00,,,0.00,500.000000,,2013-02-15 21:42:00,
2013-02-15 16:52:00,64.0,37.0,-100.00,North,6,3.0,7.0,37,0.00,,,0.00,500.000000,,2013-02-15 21:52:00,
2013-02-15 17:02:00,64.0,37.0,-100.00,North,6,3.0,7.0,37,0.00,,,0.00,500.000000,,2013-02-15 22:02:00,
2013-02-15 17:32:00,59.0,41.0,-100.00,SE,140,3.0,6.0,51,0.00,,,0.00,49.000000,,2013-02-15 22:32:00,
2013-02-15 17:42:00,59.0,41.0,-100.00,SE,140,3.0,6.0,51,0.00,,,0.00,49.000000,,2013-02-15 22:42:00,
2013-02-15 17:52:00,59.0,41.0,-100.00,SE,140,3.0,6.0,51,0.00,,,0.00,49.000000,,2013-02-15 22:52:00,
2013-02-15 18:02:00,59.0,41.0,-100.00,SE,140,3.0,6.0,51,0.00,,,0.00,49.000000,,2013-02-15 23:02:00,
2013-02-15 18:32:00,54.0,44.0,-100.00,South,178,2.0,6.0,70,0.00,,,0.00,17.000000,,2013-02-15 23:32:00,
2013-02-15 18:42:00,54.0,44.0,-100.00,South,178,2.0,6.0,70,0.00,,,0.00,17.000000,,2013-02-15 23:42:00,
2013-02-15 18:52:00,54.0,44.0,-100.00,South,178,2.0,6.0,70,0.00,,,0.00,17.000000,,2013-02-15 23:52:00,
2013-02-15 19:02:00,54.0,44.0,-100.00,South,178,2.0,6.0,70,0.00,,,0.00,17.000000,,2013-02-16 00:02:00,
2013-02-15 19:22:00,48.0,43.0,-100.00,SSW,199,1.0,4.0,83,0.00,,,0.00,0.000000,,2013-02-16 00:22:00,
2013-02-15 19:32:00,48.0,43.0,-100.00,SSW,199,1.0,4.0,83,0.00,,,0.00,0.000000,,2013-02-16 00:32:00,
2013-02-15 19:42:00,48.0,43.0,-100.00,SSW,199,1.0,4.0,83,0.00,,,0.00,0.000000,,2013-02-16 00:42:00,
2013-02-15 19:52:00,48.0,43.0,-100.00,SSW,199,1.0,4.0,83,0.00,,,0.00,0.000000,,2013-02-16 00:52:00,
2013-02-15 20:02:00,48.0,43.0,-100.00,SSW,199,1.0,4.0,83,0.00,,,0.00,0.000000,,2013-02-16 01:02:00,
2013-02-15 20:32:00,44.0,42.0,-100.00,South,189,1.0,2.0,92,0.00,,,0.00,0.000000,,2013-02-16 01:32:00,
2013-02-15 20:42:00,44.0,42.0,-100.00,South,189,1.0,2.0,92,0.00,,,0.00,0.000000,,2013-02-16 01:42:00,
2013-02-15 20:52:00,44.0,42.0,-100.00,South,189,1.0,2.0,92,0.00,,,0.00,0.000000,,2013-02-16 01:52:00,
2013-02-15 21:01:00,44.0,42.0,-100.00,South,189,1.0,2.0,92,0.00,,,0.00,0.000000,,2013-02-16 02:01:00,
2013-02-15 21:22:00,42.0,41.0,-100.00,South,188,1.0,2.0,96,0.00,,,0.00,0.000000,,2013-02-16 02:22:00,
2013-02-15 21:32:00,42.0,41.0,-100.00,South,188,1.0,2.0,96,0.00,,,0.00,0.000000,,2013-02-16 02:32:00,
2013-02-15 21:42:00,42.0,41.0,-100.00,South,188,1.0,2.0,96,0.00,,,0.00,0.000000,,2013-02-16 02:42:00,
2013-02-15 21:52:00,42.0,41.0,-100.00,South,188,1.0,2.0,96,0.00,,,0.00,0.000000,,2013-02-16 02:52:00,
2013-02-15 22:02:00,42.0,41.0,-100.00,South,188,1.0,2.0,96,0.00,,,0.00,0.000000,,2013-02-16 03:02:00,
2013-02-15 22:32:00,40.0,40.0,-100.00,SSW,194,1.0,2.0,99,0.00,,,0.00,0.000000,,2013-02-16 03:32:00,
2013-02-15 22:42:00,40.0,40.0,-100.00,SSW,194,1.0,2.0,99,0.00,,,0.00,0.000000,,2013-02-16 03:42:00,
2013-02-15 22:52:00,40.0,40.0,-100.00,SSW,194,1.0,2.0,99,0.00,,,0.00,0.000000,,2013-02-16 03:52:00,
2013-02-15 23:01:00,40.0,40.0,-100.00,SSW,194,1.0,2.0,99,0.00,,,0.00,0.000000,,2013-02-16 04:01:00,
2013-02-15 23:32:00,39.0,39.0,-100.00,SSW,207,0.0,2.0,99,0.00,,,0.00,0.000000,,2013-02-16 04:32:00,
2013-02-15 23:42:00,39.0,39.0,-100.00,SSW,207,0.0,2.0,99,0.00,,,0.00,0.000000,,2013-02-16 04:42:00,
2013-02-15 23:52:00,39.0,39.0,-100.00,SSW,207,0.0,2.0,99,0.00,,,0.00,0.000000,,2013-02-16 04:52:00,